Terminal Aerodrome Forecast
Issued by NWS St Louis, MO

Home | Current Version | Previous Version | Text Only | Print | Product List | Glossary On
Versions: 1 2 3 4 5 6 7 8 9 10 11 12 13 14 15 16 17 18 19 20 21 22 23 24 25 26 27 28 29 30 31 32 33 34 35
000
FTUS43 KLSX 300421 AAA
TAFSTL
TAF AMD
KSTL 300421Z 3004/0106 10010KT 6SM -SHRA VCTS SCT004CB OVC100
      TEMPO 3004/3006 BKN004CB
     FM301800 16013G26KT 5SM SHRA VCTS OVC015CB
     FM302200 17013G23KT P6SM SHRA VCTS BKN045CB
     FM010000 19012G20KT P6SM BKN080=

USA.gov is the U.S. government's official web portal to all federal, state and local government web resources and services.